sensor_id;sensor_type;location;lat;lon;timestamp;temperature;humidity
61253;DHT22;47127;47.516;8.596;2022-08-19T00:01:23;18.90;99.90
61253;DHT22;47127;47.516;8.596;2022-08-19T00:03:48;18.90;99.90
61253;DHT22;47127;47.516;8.596;2022-08-19T00:06:15;18.80;99.90
61253;DHT22;47127;47.516;8.596;2022-08-19T00:08:41;18.90;99.90
61253;DHT22;47127;47.516;8.596;2022-08-19T00:11:06;18.80;99.90
61253;DHT22;47127;47.516;8.596;2022-08-19T00:13:33;18.80;99.90
61253;DHT22;47127;47.516;8.596;2022-08-19T00:15:59;18.80;99.90
61253;DHT22;47127;47.516;8.596;2022-08-19T00:18:25;18.80;99.90
61253;DHT22;47127;47.516;8.596;2022-08-19T00:20:51;18.80;99.90
61253;DHT22;47127;47.516;8.596;2022-08-19T00:23:16;18.70;99.90
61253;DHT22;47127;47.516;8.596;2022-08-19T00:25:42;18.80;99.90
61253;DHT22;47127;47.516;8.596;2022-08-19T00:28:08;18.80;99.90
61253;DHT22;47127;47.516;8.596;2022-08-19T00:30:33;18.80;99.90
61253;DHT22;47127;47.516;8.596;2022-08-19T00:32:59;18.80;99.90
61253;DHT22;47127;47.516;8.596;2022-08-19T00:35:25;18.80;99.90
61253;DHT22;47127;47.516;8.596;2022-08-19T00:37:52;18.90;99.90
61253;DHT22;47127;47.516;8.596;2022-08-19T00:40:19;18.90;99.90
61253;DHT22;47127;47.516;8.596;2022-08-19T00:42:45;18.80;99.90
61253;DHT22;47127;47.516;8.596;2022-08-19T00:45:16;18.90;99.90
61253;DHT22;47127;47.516;8.596;2022-08-19T00:47:43;18.90;99.90
61253;DHT22;47127;47.516;8.596;2022-08-19T00:50:11;18.90;99.90
61253;DHT22;47127;47.516;8.596;2022-08-19T00:52:41;18.90;99.90
61253;DHT22;47127;47.516;8.596;2022-08-19T00:55:23;18.80;99.90
61253;DHT22;47127;47.516;8.596;2022-08-19T00:58:00;18.80;99.90
61253;DHT22;47127;47.516;8.596;2022-08-19T01:00:29;18.70;99.90
61253;DHT22;47127;47.516;8.596;2022-08-19T01:02:55;18.70;99.90
61253;DHT22;47127;47.516;8.596;2022-08-19T01:05:24;18.70;99.90
61253;DHT22;47127;47.516;8.596;2022-08-19T01:07:53;18.80;99.90
61253;DHT22;47127;47.516;8.596;2022-08-19T01:10:24;18.80;99.90
61253;DHT22;47127;47.516;8.596;2022-08-19T01:12:51;18.80;99.90
61253;DHT22;47127;47.516;8.596;2022-08-19T01:15:20;18.80;99.90
61253;DHT22;47127;47.516;8.596;2022-08-19T01:17:47;18.80;99.90
61253;DHT22;47127;47.516;8.596;2022-08-19T01:20:22;18.80;99.90
61253;DHT22;47127;47.516;8.596;2022-08-19T01:22:51;18.90;99.90
61253;DHT22;47127;47.516;8.596;2022-08-19T01:25:26;18.80;99.90
61253;DHT22;47127;47.516;8.596;2022-08-19T01:27:54;18.90;99.90
61253;DHT22;47127;47.516;8.596;2022-08-19T01:30:27;18.80;99.90
61253;DHT22;47127;47.516;8.596;2022-08-19T01:32:54;18.80;99.90
61253;DHT22;47127;47.516;8.596;2022-08-19T01:35:21;18.80;99.90
61253;DHT22;47127;47.516;8.596;2022-08-19T01:38:00;18.80;99.90
61253;DHT22;47127;47.516;8.596;2022-08-19T01:40:30;18.70;99.90
61253;DHT22;47127;47.516;8.596;2022-08-19T01:42:57;18.70;99.90
61253;DHT22;47127;47.516;8.596;2022-08-19T01:45:25;18.80;99.90
61253;DHT22;47127;47.516;8.596;2022-08-19T01:47:51;18.70;99.90
61253;DHT22;47127;47.516;8.596;2022-08-19T01:50:17;18.70;99.90
61253;DHT22;47127;47.516;8.596;2022-08-19T01:52:44;18.60;99.90
61253;DHT22;47127;47.516;8.596;2022-08-19T01:55:13;18.70;99.90
61253;DHT22;47127;47.516;8.596;2022-08-19T01:57:41;18.70;99.90
61253;DHT22;47127;47.516;8.596;2022-08-19T02:00:11;18.70;99.90
61253;DHT22;47127;47.516;8.596;2022-08-19T02:02:37;18.60;99.90
61253;DHT22;47127;47.516;8.596;2022-08-19T02:05:03;18.60;99.90
61253;DHT22;47127;47.516;8.596;2022-08-19T02:07:29;18.60;99.90
61253;DHT22;47127;47.516;8.596;2022-08-19T02:09:54;18.70;99.90
61253;DHT22;47127;47.516;8.596;2022-08-19T02:12:21;18.70;99.90
61253;DHT22;47127;47.516;8.596;2022-08-19T02:14:47;18.60;99.90
61253;DHT22;47127;47.516;8.596;2022-08-19T02:17:12;18.70;99.90
61253;DHT22;47127;47.516;8.596;2022-08-19T02:19:38;18.70;99.90
61253;DHT22;47127;47.516;8.596;2022-08-19T02:22:04;18.70;99.90
61253;DHT22;47127;47.516;8.596;2022-08-19T02:24:29;18.80;99.90
61253;DHT22;47127;47.516;8.596;2022-08-19T02:26:55;18.80;99.90
61253;DHT22;47127;47.516;8.596;2022-08-19T02:29:21;18.70;99.90
61253;DHT22;47127;47.516;8.596;2022-08-19T02:31:46;18.70;99.90
61253;DHT22;47127;47.516;8.596;2022-08-19T02:34:12;18.70;99.90
61253;DHT22;47127;47.516;8.596;2022-08-19T02:36:38;18.70;99.90
61253;DHT22;47127;47.516;8.596;2022-08-19T02:39:03;18.70;99.90
61253;DHT22;47127;47.516;8.596;2022-08-19T02:41:31;18.70;99.90
61253;DHT22;47127;47.516;8.596;2022-08-19T02:43:59;18.70;99.90
61253;DHT22;47127;47.516;8.596;2022-08-19T02:46:28;18.80;99.90
61253;DHT22;47127;47.516;8.596;2022-08-19T02:48:57;18.80;99.90
61253;DHT22;47127;47.516;8.596;2022-08-19T02:51:27;18.80;99.90
61253;DHT22;47127;47.516;8.596;2022-08-19T02:53:54;18.80;99.90
61253;DHT22;47127;47.516;8.596;2022-08-19T02:56:22;18.80;99.90
61253;DHT22;47127;47.516;8.596;2022-08-19T02:58:49;18.80;99.90
61253;DHT22;47127;47.516;8.596;2022-08-19T03:01:25;18.80;99.90
61253;DHT22;47127;47.516;8.596;2022-08-19T03:03:51;18.80;99.90
61253;DHT22;47127;47.516;8.596;2022-08-19T03:06:17;18.80;99.90
61253;DHT22;47127;47.516;8.596;2022-08-19T03:08:45;18.90;99.90
61253;DHT22;47127;47.516;8.596;2022-08-19T03:11:23;18.90;99.90
61253;DHT22;47127;47.516;8.596;2022-08-19T03:13:49;18.80;99.90
61253;DHT22;47127;47.516;8.596;2022-08-19T03:16:17;18.80;99.90
61253;DHT22;47127;47.516;8.596;2022-08-19T03:18:43;18.90;99.90
61253;DHT22;47127;47.516;8.596;2022-08-19T03:21:09;18.80;99.90
61253;DHT22;47127;47.516;8.596;2022-08-19T03:23:35;18.80;99.90
61253;DHT22;47127;47.516;8.596;2022-08-19T03:26:05;18.80;99.90
61253;DHT22;47127;47.516;8.596;2022-08-19T03:28:32;18.80;99.90
61253;DHT22;47127;47.516;8.596;2022-08-19T03:31:04;18.90;99.90
61253;DHT22;47127;47.516;8.596;2022-08-19T03:33:31;18.80;99.90
61253;DHT22;47127;47.516;8.596;2022-08-19T03:36:11;18.90;99.90
61253;DHT22;47127;47.516;8.596;2022-08-19T03:38:39;18.90;99.90
61253;DHT22;47127;47.516;8.596;2022-08-19T03:41:07;18.90;99.90
61253;DHT22;47127;47.516;8.596;2022-08-19T03:43:36;18.90;99.90
61253;DHT22;47127;47.516;8.596;2022-08-19T03:46:09;18.90;99.90
61253;DHT22;47127;47.516;8.596;2022-08-19T03:48:35;18.90;99.90
61253;DHT22;47127;47.516;8.596;2022-08-19T03:51:02;18.80;99.90
61253;DHT22;47127;47.516;8.596;2022-08-19T03:53:29;18.90;99.90
61253;DHT22;47127;47.516;8.596;2022-08-19T03:55:55;18.90;99.90
61253;DHT22;47127;47.516;8.596;2022-08-19T03:58:22;18.90;99.90
61253;DHT22;47127;47.516;8.596;2022-08-19T04:00:48;18.90;99.90
61253;DHT22;47127;47.516;8.596;2022-08-19T04:03:13;19.00;99.90
61253;DHT22;47127;47.516;8.596;2022-08-19T04:05:39;18.90;99.90
61253;DHT22;47127;47.516;8.596;2022-08-19T04:08:05;18.90;99.90
61253;DHT22;47127;47.516;8.596;2022-08-19T04:10:37;18.90;99.90
61253;DHT22;47127;47.516;8.596;2022-08-19T04:13:04;18.90;99.90
61253;DHT22;47127;47.516;8.596;2022-08-19T04:15:32;18.90;99.90
61253;DHT22;47127;47.516;8.596;2022-08-19T04:18:04;18.90;99.90
61253;DHT22;47127;47.516;8.596;2022-08-19T04:20:31;18.90;99.90
61253;DHT22;47127;47.516;8.596;2022-08-19T04:22:57;18.90;99.90
61253;DHT22;47127;47.516;8.596;2022-08-19T04:25:22;18.90;99.90
61253;DHT22;47127;47.516;8.596;2022-08-19T04:27:48;18.90;99.90
61253;DHT22;47127;47.516;8.596;2022-08-19T04:30:13;18.90;99.90
61253;DHT22;47127;47.516;8.596;2022-08-19T04:32:40;19.00;99.90
61253;DHT22;47127;47.516;8.596;2022-08-19T04:35:06;18.90;99.90
61253;DHT22;47127;47.516;8.596;2022-08-19T04:37:33;18.90;99.90
61253;DHT22;47127;47.516;8.596;2022-08-19T04:39:59;19.00;99.90
61253;DHT22;47127;47.516;8.596;2022-08-19T04:42:43;19.00;99.90
61253;DHT22;47127;47.516;8.596;2022-08-19T04:45:13;18.90;99.90
61253;DHT22;47127;47.516;8.596;2022-08-19T04:47:41;18.90;99.90
61253;DHT22;47127;47.516;8.596;2022-08-19T04:50:08;18.90;99.90
61253;DHT22;47127;47.516;8.596;2022-08-19T04:52:37;18.90;99.90
61253;DHT22;47127;47.516;8.596;2022-08-19T04:55:03;18.90;99.90
61253;DHT22;47127;47.516;8.596;2022-08-19T04:57:31;18.90;99.90
61253;DHT22;47127;47.516;8.596;2022-08-19T04:59:56;19.00;99.90
61253;DHT22;47127;47.516;8.596;2022-08-19T05:02:22;18.80;99.90
61253;DHT22;47127;47.516;8.596;2022-08-19T05:04:55;18.90;99.90
61253;DHT22;47127;47.516;8.596;2022-08-19T05:07:21;18.90;99.90
61253;DHT22;47127;47.516;8.596;2022-08-19T05:09:46;18.90;99.90
61253;DHT22;47127;47.516;8.596;2022-08-19T05:12:12;18.80;99.90
61253;DHT22;47127;47.516;8.596;2022-08-19T05:14:37;18.80;99.90
61253;DHT22;47127;47.516;8.596;2022-08-19T05:17:03;18.90;99.90
61253;DHT22;47127;47.516;8.596;2022-08-19T05:19:29;18.90;99.90
61253;DHT22;47127;47.516;8.596;2022-08-19T05:22:13;18.80;99.90
61253;DHT22;47127;47.516;8.596;2022-08-19T05:24:57;18.80;99.90
61253;DHT22;47127;47.516;8.596;2022-08-19T05:27:23;18.80;99.90
61253;DHT22;47127;47.516;8.596;2022-08-19T05:29:48;18.90;99.90
61253;DHT22;47127;47.516;8.596;2022-08-19T05:32:14;18.90;99.90
61253;DHT22;47127;47.516;8.596;2022-08-19T05:34:39;18.90;99.90
61253;DHT22;47127;47.516;8.596;2022-08-19T05:37:06;18.90;99.90
61253;DHT22;47127;47.516;8.596;2022-08-19T05:39:34;18.90;99.90
61253;DHT22;47127;47.516;8.596;2022-08-19T05:42:03;18.80;99.90
61253;DHT22;47127;47.516;8.596;2022-08-19T05:44:31;18.80;99.90
61253;DHT22;47127;47.516;8.596;2022-08-19T05:46:59;18.90;99.90
61253;DHT22;47127;47.516;8.596;2022-08-19T05:49:25;18.90;99.90
61253;DHT22;47127;47.516;8.596;2022-08-19T05:51:52;18.90;99.90
61253;DHT22;47127;47.516;8.596;2022-08-19T05:54:18;18.80;99.90
61253;DHT22;47127;47.516;8.596;2022-08-19T05:56:44;18.80;99.90
61253;DHT22;47127;47.516;8.596;2022-08-19T05:59:13;18.80;99.90
61253;DHT22;47127;47.516;8.596;2022-08-19T06:01:46;18.80;99.90
61253;DHT22;47127;47.516;8.596;2022-08-19T06:04:16;18.80;99.90
61253;DHT22;47127;47.516;8.596;2022-08-19T06:06:44;18.80;99.90
61253;DHT22;47127;47.516;8.596;2022-08-19T06:09:10;18.80;99.90
61253;DHT22;47127;47.516;8.596;2022-08-19T06:11:42;18.80;99.90
61253;DHT22;47127;47.516;8.596;2022-08-19T06:14:11;18.80;99.90
61253;DHT22;47127;47.516;8.596;2022-08-19T06:16:39;18.90;99.90
61253;DHT22;47127;47.516;8.596;2022-08-19T06:19:11;18.80;99.90
61253;DHT22;47127;47.516;8.596;2022-08-19T06:21:38;18.90;99.90
61253;DHT22;47127;47.516;8.596;2022-08-19T06:24:06;18.90;99.90
61253;DHT22;47127;47.516;8.596;2022-08-19T06:26:34;18.90;99.90
61253;DHT22;47127;47.516;8.596;2022-08-19T06:29:01;18.90;99.90
61253;DHT22;47127;47.516;8.596;2022-08-19T06:31:29;18.90;99.90
61253;DHT22;47127;47.516;8.596;2022-08-19T06:33:56;18.90;99.90
61253;DHT22;47127;47.516;8.596;2022-08-19T06:36:24;18.90;99.90
61253;DHT22;47127;47.516;8.596;2022-08-19T06:38:58;18.90;99.90
61253;DHT22;47127;47.516;8.596;2022-08-19T06:41:25;19.00;99.90
61253;DHT22;47127;47.516;8.596;2022-08-19T06:43:51;19.00;99.90
61253;DHT22;47127;47.516;8.596;2022-08-19T06:46:17;19.00;99.90
61253;DHT22;47127;47.516;8.596;2022-08-19T06:48:44;19.10;99.90
61253;DHT22;47127;47.516;8.596;2022-08-19T06:51:10;19.00;99.90
61253;DHT22;47127;47.516;8.596;2022-08-19T06:53:35;19.00;99.90
61253;DHT22;47127;47.516;8.596;2022-08-19T06:56:02;19.00;99.90
61253;DHT22;47127;47.516;8.596;2022-08-19T06:58:29;19.00;99.90
61253;DHT22;47127;47.516;8.596;2022-08-19T07:01:00;19.00;99.90
61253;DHT22;47127;47.516;8.596;2022-08-19T07:03:31;19.10;99.90
61253;DHT22;47127;47.516;8.596;2022-08-19T07:06:08;19.10;99.90
61253;DHT22;47127;47.516;8.596;2022-08-19T07:08:35;19.10;99.90
61253;DHT22;47127;47.516;8.596;2022-08-19T07:11:05;19.10;99.90
61253;DHT22;47127;47.516;8.596;2022-08-19T07:13:33;19.20;99.90
61253;DHT22;47127;47.516;8.596;2022-08-19T07:16:06;19.10;99.90
61253;DHT22;47127;47.516;8.596;2022-08-19T07:18:32;19.10;99.90
61253;DHT22;47127;47.516;8.596;2022-08-19T07:21:10;19.10;99.90
61253;DHT22;47127;47.516;8.596;2022-08-19T07:23:37;19.20;99.90
61253;DHT22;47127;47.516;8.596;2022-08-19T07:26:27;19.20;99.90
61253;DHT22;47127;47.516;8.596;2022-08-19T07:28:53;19.10;99.90
61253;DHT22;47127;47.516;8.596;2022-08-19T07:31:22;19.10;99.90
61253;DHT22;47127;47.516;8.596;2022-08-19T07:33:49;19.10;99.90
61253;DHT22;47127;47.516;8.596;2022-08-19T07:36:18;19.10;99.90
61253;DHT22;47127;47.516;8.596;2022-08-19T07:38:45;19.20;99.90
61253;DHT22;47127;47.516;8.596;2022-08-19T07:41:19;19.20;99.90
61253;DHT22;47127;47.516;8.596;2022-08-19T07:43:45;19.20;99.90
61253;DHT22;47127;47.516;8.596;2022-08-19T07:46:12;19.20;99.90
61253;DHT22;47127;47.516;8.596;2022-08-19T07:48:40;19.20;99.90
61253;DHT22;47127;47.516;8.596;2022-08-19T07:51:07;19.20;99.90
61253;DHT22;47127;47.516;8.596;2022-08-19T07:53:34;19.30;99.90
61253;DHT22;47127;47.516;8.596;2022-08-19T07:56:00;19.40;99.90
61253;DHT22;47127;47.516;8.596;2022-08-19T07:58:28;19.40;99.90
61253;DHT22;47127;47.516;8.596;2022-08-19T08:00:54;19.50;99.90
61253;DHT22;47127;47.516;8.596;2022-08-19T08:03:21;19.50;99.90
61253;DHT22;47127;47.516;8.596;2022-08-19T08:06:12;19.50;99.90
61253;DHT22;47127;47.516;8.596;2022-08-19T08:08:57;19.40;99.90
61253;DHT22;47127;47.516;8.596;2022-08-19T08:11:54;19.30;99.90
61253;DHT22;47127;47.516;8.596;2022-08-19T08:14:28;19.20;99.90
61253;DHT22;47127;47.516;8.596;2022-08-19T08:16:54;19.20;99.90
61253;DHT22;47127;47.516;8.596;2022-08-19T08:19:22;19.20;99.90
61253;DHT22;47127;47.516;8.596;2022-08-19T08:21:49;19.20;99.90
61253;DHT22;47127;47.516;8.596;2022-08-19T08:24:15;19.20;99.90
61253;DHT22;47127;47.516;8.596;2022-08-19T08:26:41;19.20;99.90
61253;DHT22;47127;47.516;8.596;2022-08-19T08:29:07;19.20;99.90
61253;DHT22;47127;47.516;8.596;2022-08-19T08:31:36;19.20;99.90
61253;DHT22;47127;47.516;8.596;2022-08-19T08:34:02;19.20;99.90
61253;DHT22;47127;47.516;8.596;2022-08-19T08:36:28;19.20;99.90
61253;DHT22;47127;47.516;8.596;2022-08-19T08:38:54;19.20;99.90
61253;DHT22;47127;47.516;8.596;2022-08-19T08:43:54;19.10;99.90
61253;DHT22;47127;47.516;8.596;2022-08-19T08:46:42;19.10;99.90
61253;DHT22;47127;47.516;8.596;2022-08-19T08:49:29;19.10;99.90
61253;DHT22;47127;47.516;8.596;2022-08-19T08:52:05;19.10;99.90
61253;DHT22;47127;47.516;8.596;2022-08-19T08:54:42;19.00;99.90
61253;DHT22;47127;47.516;8.596;2022-08-19T08:57:25;19.10;99.90
61253;DHT22;47127;47.516;8.596;2022-08-19T08:59:53;19.00;99.90
61253;DHT22;47127;47.516;8.596;2022-08-19T09:02:19;19.00;99.90
61253;DHT22;47127;47.516;8.596;2022-08-19T09:04:45;19.00;99.90
61253;DHT22;47127;47.516;8.596;2022-08-19T09:07:49;19.00;99.90
61253;DHT22;47127;47.516;8.596;2022-08-19T09:10:38;19.00;99.90
61253;DHT22;47127;47.516;8.596;2022-08-19T09:16:09;18.90;99.90
61253;DHT22;47127;47.516;8.596;2022-08-19T09:18:45;19.00;99.90
61253;DHT22;47127;47.516;8.596;2022-08-19T09:21:13;18.80;99.90
61253;DHT22;47127;47.516;8.596;2022-08-19T09:23:40;18.60;99.90
61253;DHT22;47127;47.516;8.596;2022-08-19T09:26:14;18.60;99.90
61253;DHT22;47127;47.516;8.596;2022-08-19T09:28:45;18.70;99.90
61253;DHT22;47127;47.516;8.596;2022-08-19T09:31:13;18.70;99.90
61253;DHT22;47127;47.516;8.596;2022-08-19T09:33:40;18.70;99.90
61253;DHT22;47127;47.516;8.596;2022-08-19T09:36:10;18.80;99.90
61253;DHT22;47127;47.516;8.596;2022-08-19T09:38:37;18.80;99.90
61253;DHT22;47127;47.516;8.596;2022-08-19T09:41:07;18.80;99.90
61253;DHT22;47127;47.516;8.596;2022-08-19T09:43:33;18.70;99.90
61253;DHT22;47127;47.516;8.596;2022-08-19T09:46:02;18.80;99.90
61253;DHT22;47127;47.516;8.596;2022-08-19T09:48:31;18.80;99.90
61253;DHT22;47127;47.516;8.596;2022-08-19T09:51:06;18.90;99.90
61253;DHT22;47127;47.516;8.596;2022-08-19T09:53:36;18.90;99.90
61253;DHT22;47127;47.516;8.596;2022-08-19T09:56:03;19.00;99.90
61253;DHT22;47127;47.516;8.596;2022-08-19T09:58:29;19.00;99.90
61253;DHT22;47127;47.516;8.596;2022-08-19T10:00:56;19.10;99.90
61253;DHT22;47127;47.516;8.596;2022-08-19T10:03:22;19.10;99.90
61253;DHT22;47127;47.516;8.596;2022-08-19T10:05:48;19.10;99.90
61253;DHT22;47127;47.516;8.596;2022-08-19T10:08:20;19.10;99.90
61253;DHT22;47127;47.516;8.596;2022-08-19T10:10:47;19.10;99.90
61253;DHT22;47127;47.516;8.596;2022-08-19T10:13:15;19.20;99.90
61253;DHT22;47127;47.516;8.596;2022-08-19T10:15:42;19.20;99.90
61253;DHT22;47127;47.516;8.596;2022-08-19T10:18:07;19.20;99.90
61253;DHT22;47127;47.516;8.596;2022-08-19T10:20:33;19.20;99.90
61253;DHT22;47127;47.516;8.596;2022-08-19T10:23:01;19.20;99.90
61253;DHT22;47127;47.516;8.596;2022-08-19T10:25:27;19.30;99.90
61253;DHT22;47127;47.516;8.596;2022-08-19T10:27:53;19.20;99.90
61253;DHT22;47127;47.516;8.596;2022-08-19T10:30:19;19.30;99.90
61253;DHT22;47127;47.516;8.596;2022-08-19T10:32:45;19.40;99.90
61253;DHT22;47127;47.516;8.596;2022-08-19T10:35:12;19.30;99.90
61253;DHT22;47127;47.516;8.596;2022-08-19T10:37:38;19.20;99.90
61253;DHT22;47127;47.516;8.596;2022-08-19T10:40:08;19.10;99.90
61253;DHT22;47127;47.516;8.596;2022-08-19T10:42:36;19.10;99.90
61253;DHT22;47127;47.516;8.596;2022-08-19T10:45:03;19.00;99.90
61253;DHT22;47127;47.516;8.596;2022-08-19T10:47:29;19.00;99.90
61253;DHT22;47127;47.516;8.596;2022-08-19T10:49:55;19.10;99.90
61253;DHT22;47127;47.516;8.596;2022-08-19T10:52:45;19.00;99.90
61253;DHT22;47127;47.516;8.596;2022-08-19T10:55:11;18.90;99.90
61253;DHT22;47127;47.516;8.596;2022-08-19T10:57:55;18.90;99.90
61253;DHT22;47127;47.516;8.596;2022-08-19T11:00:23;19.00;99.90
61253;DHT22;47127;47.516;8.596;2022-08-19T11:02:49;19.00;99.90
61253;DHT22;47127;47.516;8.596;2022-08-19T11:05:15;18.90;99.90
61253;DHT22;47127;47.516;8.596;2022-08-19T11:07:42;19.00;99.90
61253;DHT22;47127;47.516;8.596;2022-08-19T11:10:11;19.00;99.90
61253;DHT22;47127;47.516;8.596;2022-08-19T11:12:37;19.00;99.90
61253;DHT22;47127;47.516;8.596;2022-08-19T11:15:08;18.90;99.90
61253;DHT22;47127;47.516;8.596;2022-08-19T11:17:39;18.80;99.90
61253;DHT22;47127;47.516;8.596;2022-08-19T11:20:13;18.80;99.90
61253;DHT22;47127;47.516;8.596;2022-08-19T11:22:39;18.80;99.90
61253;DHT22;47127;47.516;8.596;2022-08-19T11:25:06;18.80;99.90
61253;DHT22;47127;47.516;8.596;2022-08-19T11:27:31;18.80;99.90
61253;DHT22;47127;47.516;8.596;2022-08-19T11:29:57;18.80;99.90
61253;DHT22;47127;47.516;8.596;2022-08-19T11:32:22;18.80;99.90
61253;DHT22;47127;47.516;8.596;2022-08-19T11:34:48;18.70;99.90
61253;DHT22;47127;47.516;8.596;2022-08-19T11:37:14;18.80;99.90
61253;DHT22;47127;47.516;8.596;2022-08-19T11:39:41;18.80;99.90
61253;DHT22;47127;47.516;8.596;2022-08-19T11:42:07;18.80;99.90
61253;DHT22;47127;47.516;8.596;2022-08-19T11:44:53;18.80;99.90
61253;DHT22;47127;47.516;8.596;2022-08-19T11:47:19;19.00;99.90
61253;DHT22;47127;47.516;8.596;2022-08-19T11:49:46;19.00;99.90
61253;DHT22;47127;47.516;8.596;2022-08-19T11:52:12;19.00;99.90
61253;DHT22;47127;47.516;8.596;2022-08-19T11:54:37;19.00;99.90
61253;DHT22;47127;47.516;8.596;2022-08-19T11:57:03;19.10;99.90
61253;DHT22;47127;47.516;8.596;2022-08-19T11:59:29;19.10;99.90
61253;DHT22;47127;47.516;8.596;2022-08-19T12:01:55;19.10;99.90
61253;DHT22;47127;47.516;8.596;2022-08-19T12:04:21;19.20;99.90
61253;DHT22;47127;47.516;8.596;2022-08-19T12:06:47;19.20;99.90
61253;DHT22;47127;47.516;8.596;2022-08-19T12:09:13;19.30;99.90
61253;DHT22;47127;47.516;8.596;2022-08-19T12:11:41;19.40;99.90
61253;DHT22;47127;47.516;8.596;2022-08-19T12:14:10;19.40;99.90
61253;DHT22;47127;47.516;8.596;2022-08-19T12:16:36;19.40;99.90
61253;DHT22;47127;47.516;8.596;2022-08-19T12:19:04;19.40;99.90
61253;DHT22;47127;47.516;8.596;2022-08-19T12:21:31;19.50;99.90
61253;DHT22;47127;47.516;8.596;2022-08-19T12:23:58;19.60;99.90
61253;DHT22;47127;47.516;8.596;2022-08-19T12:26:25;19.50;99.90
61253;DHT22;47127;47.516;8.596;2022-08-19T12:28:52;19.40;99.90
61253;DHT22;47127;47.516;8.596;2022-08-19T12:31:18;19.40;99.90
61253;DHT22;47127;47.516;8.596;2022-08-19T12:33:45;19.40;99.90
61253;DHT22;47127;47.516;8.596;2022-08-19T12:36:12;19.50;99.90
61253;DHT22;47127;47.516;8.596;2022-08-19T12:38:39;19.50;99.90
61253;DHT22;47127;47.516;8.596;2022-08-19T12:41:08;19.60;99.90
61253;DHT22;47127;47.516;8.596;2022-08-19T12:43:35;19.60;99.90
61253;DHT22;47127;47.516;8.596;2022-08-19T12:46:01;19.60;99.90
61253;DHT22;47127;47.516;8.596;2022-08-19T12:48:27;19.60;99.90
61253;DHT22;47127;47.516;8.596;2022-08-19T12:50:54;19.60;99.90
61253;DHT22;47127;47.516;8.596;2022-08-19T12:53:19;19.60;99.90
61253;DHT22;47127;47.516;8.596;2022-08-19T12:55:45;19.50;99.90
61253;DHT22;47127;47.516;8.596;2022-08-19T12:58:11;19.60;99.90
61253;DHT22;47127;47.516;8.596;2022-08-19T13:00:37;19.60;99.90
61253;DHT22;47127;47.516;8.596;2022-08-19T13:03:03;19.50;99.90
61253;DHT22;47127;47.516;8.596;2022-08-19T13:05:31;19.60;99.90
61253;DHT22;47127;47.516;8.596;2022-08-19T13:07:58;19.70;99.90
61253;DHT22;47127;47.516;8.596;2022-08-19T13:10:30;19.80;99.90
61253;DHT22;47127;47.516;8.596;2022-08-19T13:13:02;19.90;99.90
61253;DHT22;47127;47.516;8.596;2022-08-19T13:15:28;20.00;99.90
61253;DHT22;47127;47.516;8.596;2022-08-19T13:17:56;20.00;99.90
61253;DHT22;47127;47.516;8.596;2022-08-19T13:20:22;19.90;99.90
61253;DHT22;47127;47.516;8.596;2022-08-19T13:22:48;19.90;99.90
61253;DHT22;47127;47.516;8.596;2022-08-19T13:25:15;19.90;99.90
61253;DHT22;47127;47.516;8.596;2022-08-19T13:27:42;20.00;99.90
61253;DHT22;47127;47.516;8.596;2022-08-19T13:30:11;20.00;99.90
61253;DHT22;47127;47.516;8.596;2022-08-19T13:32:56;20.00;99.90
61253;DHT22;47127;47.516;8.596;2022-08-19T13:35:38;19.90;99.90
61253;DHT22;47127;47.516;8.596;2022-08-19T13:38:05;20.00;99.90
61253;DHT22;47127;47.516;8.596;2022-08-19T13:40:32;20.00;99.90
61253;DHT22;47127;47.516;8.596;2022-08-19T13:42:59;19.90;99.90
61253;DHT22;47127;47.516;8.596;2022-08-19T13:45:26;20.00;99.90
61253;DHT22;47127;47.516;8.596;2022-08-19T13:47:54;20.00;99.90
61253;DHT22;47127;47.516;8.596;2022-08-19T13:50:25;20.10;99.90
61253;DHT22;47127;47.516;8.596;2022-08-19T13:52:53;20.10;99.90
61253;DHT22;47127;47.516;8.596;2022-08-19T13:55:18;20.30;99.90
61253;DHT22;47127;47.516;8.596;2022-08-19T13:57:45;20.30;99.90
61253;DHT22;47127;47.516;8.596;2022-08-19T14:00:14;20.40;99.90
61253;DHT22;47127;47.516;8.596;2022-08-19T14:02:41;20.40;99.90
61253;DHT22;47127;47.516;8.596;2022-08-19T14:05:09;20.40;99.90
61253;DHT22;47127;47.516;8.596;2022-08-19T14:07:36;20.40;99.90
61253;DHT22;47127;47.516;8.596;2022-08-19T14:10:04;20.50;99.90
61253;DHT22;47127;47.516;8.596;2022-08-19T14:12:31;20.40;99.90
61253;DHT22;47127;47.516;8.596;2022-08-19T14:14:58;20.50;99.90
61253;DHT22;47127;47.516;8.596;2022-08-19T14:17:24;20.40;99.90
61253;DHT22;47127;47.516;8.596;2022-08-19T14:19:56;20.40;99.90
61253;DHT22;47127;47.516;8.596;2022-08-19T14:22:22;20.40;99.90
61253;DHT22;47127;47.516;8.596;2022-08-19T14:24:48;20.40;99.90
61253;DHT22;47127;47.516;8.596;2022-08-19T14:27:15;20.30;99.90
61253;DHT22;47127;47.516;8.596;2022-08-19T14:29:41;20.40;99.90
61253;DHT22;47127;47.516;8.596;2022-08-19T14:32:06;20.30;99.90
61253;DHT22;47127;47.516;8.596;2022-08-19T14:34:32;20.30;99.90
61253;DHT22;47127;47.516;8.596;2022-08-19T14:36:59;20.20;99.90
61253;DHT22;47127;47.516;8.596;2022-08-19T14:39:24;20.20;99.90
61253;DHT22;47127;47.516;8.596;2022-08-19T14:41:50;20.20;99.90
61253;DHT22;47127;47.516;8.596;2022-08-19T14:44:16;20.20;99.90
61253;DHT22;47127;47.516;8.596;2022-08-19T14:46:41;20.20;99.90
61253;DHT22;47127;47.516;8.596;2022-08-19T14:49:07;20.20;99.90
61253;DHT22;47127;47.516;8.596;2022-08-19T14:51:33;20.10;99.90
61253;DHT22;47127;47.516;8.596;2022-08-19T14:53:59;20.10;99.90
61253;DHT22;47127;47.516;8.596;2022-08-19T14:56:27;20.10;99.90
61253;DHT22;47127;47.516;8.596;2022-08-19T14:58:54;20.10;99.90
61253;DHT22;47127;47.516;8.596;2022-08-19T15:01:22;20.10;99.90
61253;DHT22;47127;47.516;8.596;2022-08-19T15:03:49;20.10;99.90
61253;DHT22;47127;47.516;8.596;2022-08-19T15:06:15;20.10;99.90
61253;DHT22;47127;47.516;8.596;2022-08-19T15:08:42;20.20;99.90
61253;DHT22;47127;47.516;8.596;2022-08-19T15:11:15;20.20;99.90
61253;DHT22;47127;47.516;8.596;2022-08-19T15:13:43;20.30;99.90
61253;DHT22;47127;47.516;8.596;2022-08-19T15:16:09;20.40;99.90
61253;DHT22;47127;47.516;8.596;2022-08-19T15:18:35;20.40;99.90
61253;DHT22;47127;47.516;8.596;2022-08-19T15:21:02;20.40;99.90
61253;DHT22;47127;47.516;8.596;2022-08-19T15:23:28;20.40;99.90
61253;DHT22;47127;47.516;8.596;2022-08-19T15:25:54;20.40;99.90
61253;DHT22;47127;47.516;8.596;2022-08-19T15:28:24;20.30;99.90
61253;DHT22;47127;47.516;8.596;2022-08-19T15:30:51;20.40;99.90
61253;DHT22;47127;47.516;8.596;2022-08-19T15:33:17;20.30;99.90
61253;DHT22;47127;47.516;8.596;2022-08-19T15:35:46;20.30;99.90
61253;DHT22;47127;47.516;8.596;2022-08-19T15:38:12;20.30;99.90
61253;DHT22;47127;47.516;8.596;2022-08-19T15:40:39;20.30;99.90
61253;DHT22;47127;47.516;8.596;2022-08-19T15:43:06;20.30;99.90